TAF and METAR

METAR for Inca Manco Capac Airport

SPJL 230300Z 27003KT 9999 FEW010 SCT080 10/06 Q1037 RMK PP000
Report created 23. feb 04:00
wind 3 knots from W (270°) visibility > 10km some clouds (~25% cover) at 1000 feet scattered clouds (~50% cover) at 8000 feet Temperature 10° with dewpoint at 6° (Humidity 76.18%) Pressure 1037 hPa

TAF for Inca Manco Capac Airport

SPJL 222300Z 2300/2324 09005KT 9999 SCT020 TX17/2318Z TN05/2310Z FM230800 VRB05KT 9999 SCT025 FM231900 11010KT 9999 BKN020 BKN080
Report created 23. feb 00:00

between 23. feb 01:00 - 23. feb 01:00

wind 5 knots from E (090°) visibility > 10km scattered clouds (~50% cover) at 2000 feet Max temperature 17° expected today at around 19 o'clock Min temperature 05° expected today at around 11 o'clock

From 23. feb 09:00

wind 5 knots from various directions visibility > 10km scattered clouds (~50% cover) at 2500 feet

From 23. feb 20:00

wind 10 knots from ESE (110°) visibility > 10km broken clouds (~75% cover) at 2000 feet broken clouds (~75% cover) at 8000 feet
Inca Manco Capac Airport in Peru at 3827m

Latest 5 airports